createdAt,value
2022-11-05T00:00:57.344Z,100552.66
2022-11-05T00:03:45.578Z,100549.94
2022-11-05T00:06:33.813Z,100547.19
2022-11-05T00:09:21.993Z,100543.34
2022-11-05T00:12:10.114Z,100544.09
2022-11-05T00:14:58.386Z,100554.25
2022-11-05T00:17:26.592Z,100549.94
2022-11-05T00:19:55.129Z,100545.25
2022-11-05T00:22:43.156Z,100548.78
2022-11-05T00:25:18.820Z,100558.13
2022-11-05T00:27:49.358Z,100556.19
2022-11-05T00:30:21.524Z,100558.13
2022-11-05T00:32:50.604Z,100558.13
2022-11-05T00:35:21.161Z,100565.53
2022-11-05T00:37:50.562Z,100563.13
2022-11-05T00:40:19.023Z,100572.13
2022-11-05T00:43:07.282Z,100574.06
2022-11-05T00:45:35.941Z,100575.97
2022-11-05T00:48:24.022Z,100572.91
2022-11-05T00:50:55.350Z,100583.06
2022-11-05T00:53:24.752Z,100578.38
2022-11-05T00:55:59.912Z,100579.97
2022-11-05T00:58:29.837Z,100585.44
2022-11-05T01:01:00.230Z,100584.66
2022-11-05T01:03:32.152Z,100592.84
2022-11-05T01:06:10.023Z,100583.53
2022-11-05T01:08:38.503Z,100585.44
2022-11-05T01:11:37.292Z,100590.13
2022-11-05T01:14:11.841Z,100592.03
2022-11-05T01:16:41.155Z,100595.25
2022-11-05T01:19:12.120Z,100595.25
2022-11-05T01:21:40.741Z,100596.38
2022-11-05T01:24:11.202Z,100607.31
2022-11-05T01:26:40.157Z,100601.84
2022-11-05T01:29:08.843Z,100610.84
2022-11-05T01:31:37.704Z,100612.78
2022-11-05T01:34:06.303Z,100623.34
2022-11-05T01:36:35.790Z,100617.13
2022-11-05T01:39:05.803Z,100616.63
2022-11-05T01:41:34.504Z,100618.25
2022-11-05T01:44:04.083Z,100613.91
2022-11-05T01:46:42.648Z,100617.44
2022-11-05T01:51:56.354Z,100617.56
2022-11-05T01:54:29.357Z,100633.72
2022-11-05T01:57:04.825Z,100630.50
2022-11-05T01:59:40.599Z,100634.38
2022-11-05T02:02:10.093Z,100642.94
2022-11-05T02:04:51.312Z,100646.78
2022-11-05T02:07:20.583Z,100643.59
2022-11-05T02:10:10.556Z,100646.22
2022-11-05T02:12:44.351Z,100642.22
2022-11-05T02:15:55.627Z,100650.75
2022-11-05T02:35:16.407Z,100658.94
2022-11-05T02:37:52.943Z,100654.00
2022-11-05T02:51:24.835Z,100666.66
2022-11-05T02:54:06.343Z,100670.75
2022-11-05T02:56:40.034Z,100675.09
2022-11-05T02:59:07.875Z,100680.56
2022-11-05T03:01:38.909Z,100675.09
2022-11-05T03:04:11.283Z,100690.31
2022-11-05T03:18:13.910Z,100692.31
2022-11-05T03:20:51.565Z,100697.19
2022-11-05T03:23:27.402Z,100698.78
2022-11-05T03:26:04.591Z,100700.03
2022-11-05T03:28:36.411Z,100696.19
2022-11-05T03:31:07.216Z,100697.00
2022-11-05T03:33:37.857Z,100709.53
2022-11-05T03:36:14.256Z,100704.06
2022-11-05T03:38:47.031Z,100710.31
2022-11-05T03:41:16.841Z,100702.91
2022-11-05T03:43:49.305Z,100703.69
2022-11-05T03:46:23.700Z,100709.16
2022-11-05T03:48:55.777Z,100706.09
2022-11-05T03:54:05.469Z,100716.50
2022-11-05T03:59:16.580Z,100718.88
2022-11-05T04:01:44.971Z,100722.97
2022-11-05T04:04:12.731Z,100723.75
2022-11-05T04:07:00.365Z,100723.75
2022-11-05T04:09:48.123Z,100727.28
2022-11-05T04:12:35.529Z,100723.75
2022-11-05T04:15:03.698Z,100730.00
2022-11-05T04:17:31.754Z,100728.88
2022-11-05T04:20:19.542Z,100734.34
2022-11-05T04:23:07.744Z,100730.00
2022-11-05T04:25:35.762Z,100738.22
2022-11-05T04:28:04.500Z,100743.69
2022-11-05T04:30:33.397Z,100748.69
2022-11-05T04:33:06.723Z,100756.88
2022-11-05T04:35:39.684Z,100756.53
2022-11-05T04:38:11.086Z,100764.72
2022-11-05T04:40:39.411Z,100764.72
2022-11-05T04:43:14.736Z,100761.69
2022-11-05T04:45:44.141Z,100771.47
2022-11-05T04:48:13.361Z,100766.34
2022-11-05T04:50:41.103Z,100763.16
2022-11-05T04:53:09.165Z,100761.22
2022-11-05T04:55:40.890Z,100765.88
2022-11-05T04:58:09.914Z,100769.44
2022-11-05T05:00:38.185Z,100771.81
2022-11-05T05:03:06.368Z,100771.00
2022-11-05T05:05:34.803Z,100771.00
2022-11-05T05:08:04.687Z,100776.47
2022-11-05T05:10:33.842Z,100787.41
2022-11-05T05:13:02.101Z,100784.66
2022-11-05T05:15:30.583Z,100781.59
2022-11-05T05:17:58.763Z,100783.09
2022-11-05T05:20:46.427Z,100783.53
2022-11-05T05:23:14.412Z,100793.66
2022-11-05T05:25:42.345Z,100793.66
2022-11-05T05:28:10.342Z,100794.47
2022-11-05T05:30:38.872Z,100807.00
2022-11-05T05:33:06.945Z,100806.19
2022-11-05T05:35:34.947Z,100814.88
2022-11-05T05:38:02.651Z,100814.06
2022-11-05T05:40:30.531Z,100815.66
2022-11-05T05:42:59.222Z,100810.19
2022-11-05T05:45:26.960Z,100825.44
2022-11-05T05:47:57.215Z,100820.78
2022-11-05T05:50:26.270Z,100832.53
2022-11-05T05:52:54.267Z,100836.88
2022-11-05T05:55:22.278Z,100834.13
2022-11-05T05:57:50.532Z,100828.66
2022-11-05T06:00:18.992Z,100826.72
2022-11-05T06:02:47.319Z,100844.72
2022-11-05T06:05:15.349Z,100841.66
2022-11-05T06:07:43.283Z,100839.72
2022-11-05T06:10:11.254Z,100840.53
2022-11-05T06:12:39.759Z,100848.41
2022-11-05T06:15:08.257Z,100850.31
2022-11-05T06:17:36.302Z,100855.44
2022-11-05T06:20:04.402Z,100849.97
2022-11-05T06:22:32.084Z,100855.91
2022-11-05T06:24:59.760Z,100858.34
2022-11-05T06:27:28.768Z,100856.41
2022-11-05T06:29:56.515Z,100859.59
2022-11-05T06:32:24.505Z,100865.06
2022-11-05T06:34:52.144Z,100860.38
2022-11-05T06:37:20.172Z,100871.81
2022-11-05T06:39:47.987Z,100874.19
2022-11-05T06:42:19.414Z,100873.06
2022-11-05T06:44:47.354Z,100873.84
2022-11-05T06:47:14.929Z,100876.59
2022-11-05T06:49:42.719Z,100870.78
2022-11-05T06:52:10.297Z,100877.03
2022-11-05T06:54:38.097Z,100870.00
2022-11-05T06:57:06.770Z,100876.25
2022-11-05T06:59:35.012Z,100876.25
2022-11-05T07:02:02.869Z,100874.31
2022-11-05T07:04:30.876Z,100875.91
2022-11-05T07:07:01.357Z,100882.19
2022-11-05T07:09:29.833Z,100882.66
2022-11-05T07:11:57.460Z,100884.72
2022-11-05T07:14:25.255Z,100894.66
2022-11-05T07:16:52.860Z,100889.66
2022-11-05T07:19:21.310Z,100889.97
2022-11-05T07:21:49.103Z,100890.31
2022-11-05T07:24:17.064Z,100889.50
2022-11-05T07:26:45.044Z,100891.13
2022-11-05T07:29:12.779Z,100881.78
2022-11-05T07:31:40.503Z,100888.84
2022-11-05T07:34:08.359Z,100890.44
2022-11-05T07:36:36.247Z,100893.97
2022-11-05T07:39:04.023Z,100892.84
2022-11-05T07:41:31.850Z,100900.72
2022-11-05T07:43:59.601Z,100896.06
2022-11-05T07:46:27.305Z,100898.78
2022-11-05T07:48:55.129Z,100904.47
2022-11-05T07:51:22.979Z,100913.78
2022-11-05T07:53:50.786Z,100916.19
2022-11-05T07:56:18.711Z,100913.47
2022-11-05T07:58:46.410Z,100913.59
2022-11-05T08:01:14.434Z,100921.78
2022-11-05T08:03:42.661Z,100920.66
2022-11-05T08:06:10.574Z,100917.56
2022-11-05T08:08:38.329Z,100926.72
2022-11-05T08:11:08.375Z,100917.38
2022-11-05T08:13:37.302Z,100920.13
2022-11-05T08:16:06.142Z,100921.25
2022-11-05T08:18:34.530Z,100923.66
2022-11-05T08:21:04.512Z,100929.13
2022-11-05T08:23:32.921Z,100926.88
2022-11-05T08:26:04.032Z,100931.66
2022-11-05T08:28:32.537Z,100928.72
2022-11-05T08:31:00.357Z,100932.84
2022-11-05T08:33:29.864Z,100939.72
2022-11-05T08:36:01.606Z,100937.78
2022-11-05T08:38:29.360Z,100932.63
2022-11-05T08:40:58.580Z,100939.38
2022-11-05T08:43:26.592Z,100927.63
2022-11-05T08:45:55.395Z,100934.72
2022-11-05T08:48:23.230Z,100934.72
2022-11-05T08:50:50.865Z,100940.31
2022-11-05T08:53:18.900Z,100943.38
2022-11-05T08:55:48.036Z,100942.91
2022-11-05T08:58:17.416Z,100940.84
2022-11-05T09:00:47.589Z,100949.03
2022-11-05T09:03:15.719Z,100951.13
2022-11-05T09:05:44.280Z,100955.47
2022-11-05T09:08:15.001Z,100955.00
2022-11-05T09:10:44.508Z,100951.78
2022-11-05T09:13:18.335Z,100948.72
2022-11-05T09:15:49.268Z,100958.53
2022-11-05T09:18:18.390Z,100957.72
2022-11-05T09:20:46.846Z,100955.31
2022-11-05T09:23:15.539Z,100961.47
2022-11-05T09:25:44.100Z,100960.66
2022-11-05T09:28:18.599Z,100956.00
2022-11-05T09:30:48.719Z,100952.94
2022-11-05T09:33:18.981Z,100957.41
2022-11-05T09:35:47.212Z,100951.56
2022-11-05T09:38:15.251Z,100952.84
2022-11-05T09:41:01.579Z,100961.88
2022-11-05T09:43:49.499Z,100952.38
2022-11-05T09:49:03.645Z,100967.47
2022-11-05T09:51:32.252Z,100964.59
2022-11-05T09:54:04.210Z,100967.47
2022-11-05T09:56:35.380Z,100971.00
2022-11-05T09:59:14.597Z,100967.59
2022-11-05T10:01:45.914Z,100963.03
2022-11-05T10:04:19.582Z,100966.69
2022-11-05T10:06:52.207Z,100957.25
2022-11-05T10:09:43.665Z,100958.03
2022-11-05T10:17:44.015Z,100968.09
2022-11-05T10:20:36.013Z,100976.53
2022-11-05T10:23:15.273Z,100971.53
2022-11-05T10:25:47.792Z,100971.97
2022-11-05T10:28:24.664Z,100972.78
2022-11-05T10:30:58.285Z,100979.53
2022-11-05T10:36:22.866Z,100979.88
2022-11-05T10:38:51.215Z,100990.28
2022-11-05T10:41:49.874Z,100989.91
2022-11-05T10:47:07.297Z,100995.66
2022-11-05T10:49:49.154Z,100988.31
2022-11-05T10:52:24.934Z,100997.00
2022-11-05T10:54:55.521Z,100992.66
2022-11-05T10:57:35.698Z,100991.84
2022-11-05T11:00:21.973Z,100989.91
2022-11-05T11:02:53.983Z,100997.00
2022-11-05T11:05:31.787Z,100993.13
2022-11-05T11:10:57.479Z,100991.84
2022-11-05T11:13:29.130Z,100989.00
2022-11-05T11:16:15.290Z,100988.19
2022-11-05T11:18:44.181Z,100989.47
2022-11-05T11:21:17.828Z,100988.31
2022-11-05T11:24:01.266Z,100993.66
2022-11-05T11:26:33.050Z,100999.81
2022-11-05T11:29:07.421Z,100999.81
2022-11-05T11:31:39.763Z,101005.28
2022-11-05T11:37:06.227Z,101010.22
2022-11-05T11:39:35.314Z,101007.22
2022-11-05T11:42:11.720Z,101006.41
2022-11-05T11:44:44.507Z,101010.66
2022-11-05T11:47:16.194Z,101017.56
2022-11-05T11:50:01.522Z,101023.03
2022-11-05T11:52:33.654Z,101026.91
2022-11-05T11:55:22.214Z,101025.34
2022-11-05T11:57:53.700Z,101030.81
2022-11-05T12:00:27.281Z,101027.59
2022-11-05T12:16:53.916Z,101050.09
2022-11-05T12:25:49.456Z,101034.34
2022-11-05T12:39:53.004Z,101038.09
2022-11-05T12:56:02.055Z,101050.97
2022-11-05T12:58:35.577Z,101053.09
2022-11-05T13:01:09.297Z,101058.09
2022-11-05T13:06:40.685Z,101062.56
2022-11-05T13:09:24.120Z,101064.25
2022-11-05T13:12:12.733Z,101073.56
2022-11-05T13:17:30.009Z,101073.69
2022-11-05T13:20:19.634Z,101079.38
2022-11-05T13:22:52.860Z,101073.75
2022-11-05T13:25:41.115Z,101077.63
2022-11-05T13:31:10.401Z,101082.09
2022-11-05T13:33:43.104Z,101079.91
2022-11-05T13:36:37.706Z,101080.22
2022-11-05T13:52:53.795Z,101108.88
2022-11-05T14:01:50.028Z,101101.78
2022-11-05T14:07:27.677Z,101105.22
2022-11-05T14:10:02.208Z,101106.97
2022-11-05T14:12:37.215Z,101104.59
2022-11-05T14:17:58.120Z,101120.34
2022-11-05T14:20:39.994Z,101120.06
2022-11-05T14:28:43.128Z,101129.22
2022-11-05T14:39:50.702Z,101135.31
2022-11-05T14:42:25.321Z,101134.25
2022-11-05T14:47:50.341Z,101140.66
2022-11-05T14:50:26.431Z,101129.44
2022-11-05T14:52:57.386Z,101135.22
2022-11-05T14:58:35.779Z,101138.91
2022-11-05T15:01:09.073Z,101133.16
2022-11-05T15:06:37.546Z,101135.22
2022-11-05T15:09:31.435Z,101128.31
2022-11-05T15:12:05.829Z,101132.53
2022-11-05T15:17:23.931Z,101140.56
2022-11-05T15:19:53.549Z,101135.94
2022-11-05T15:22:43.557Z,101142.22
2022-11-05T15:25:27.737Z,101143.34
2022-11-05T15:28:16.155Z,101143.34
2022-11-05T15:33:44.920Z,101145.09
2022-11-05T15:36:23.985Z,101132.25
2022-11-05T15:39:23.036Z,101149.78
2022-11-05T15:41:40.595Z,101144.63
2022-11-05T15:44:25.287Z,101153.97
2022-11-05T15:47:22.507Z,101154.63
2022-11-05T15:49:55.421Z,101152.69
2022-11-05T15:52:32.407Z,101157.34
2022-11-05T15:55:20.814Z,101162.03
2022-11-05T15:57:52.754Z,101162.34
2022-11-05T16:00:23.880Z,101172.50
2022-11-05T16:05:44.453Z,101169.91
2022-11-05T16:08:17.322Z,101170.41
2022-11-05T16:10:49.187Z,101173.47
2022-11-05T16:16:04.089Z,101171.84
2022-11-05T16:18:34.963Z,101179.25
2022-11-05T16:24:01.023Z,101184.88
2022-11-05T16:29:24.224Z,101183.59
2022-11-05T16:31:54.108Z,101179.75
2022-11-05T16:34:38.488Z,101176.19
2022-11-05T16:37:08.561Z,101171.88
2022-11-05T16:39:36.454Z,101185.06
2022-11-05T16:45:02.155Z,101187.63
2022-11-05T16:47:31.943Z,101190.03
2022-11-05T16:50:00.621Z,101183.00
2022-11-05T16:52:28.767Z,101181.38
2022-11-05T16:54:57.087Z,101184.13
2022-11-05T16:57:28.586Z,101181.38
2022-11-05T16:59:57.755Z,101178.66
2022-11-05T17:02:26.580Z,101181.38
2022-11-05T17:04:55.058Z,101176.22
2022-11-05T17:07:23.263Z,101184.44
2022-11-05T17:09:51.550Z,101171.41
2022-11-05T17:12:19.562Z,101175.28
2022-11-05T17:14:47.618Z,101184.28
2022-11-05T17:17:16.251Z,101191.66
2022-11-05T17:19:44.814Z,101197.00
2022-11-05T17:22:13.282Z,101204.88
2022-11-05T17:24:41.424Z,101214.19
2022-11-05T17:27:09.514Z,101202.75
2022-11-05T17:29:37.599Z,101215.63
2022-11-05T17:32:07.011Z,101215.16
2022-11-05T17:34:36.045Z,101216.28
2022-11-05T17:37:04.234Z,101214.66
2022-11-05T17:39:32.591Z,101212.59
2022-11-05T17:42:00.707Z,101212.91
2022-11-05T17:44:29.392Z,101217.56
2022-11-05T17:46:57.520Z,101217.56
2022-11-05T17:49:25.906Z,101217.41
2022-11-05T17:51:53.974Z,101219.34
2022-11-05T17:54:22.325Z,101219.69
2022-11-05T17:56:50.551Z,101229.78
2022-11-05T17:59:19.280Z,101220.31
2022-11-05T18:01:48.649Z,101221.41
2022-11-05T18:04:16.721Z,101223.69
2022-11-05T18:06:45.203Z,101227.53
2022-11-05T18:09:14.313Z,101230.56
2022-11-05T18:11:43.409Z,101229.47
2022-11-05T18:14:11.647Z,101224.66
2022-11-05T18:16:39.846Z,101230.09
2022-11-05T18:19:08.472Z,101232.53
2022-11-05T18:21:37.021Z,101231.06
2022-11-05T18:24:06.614Z,101229.47
2022-11-05T18:26:35.753Z,101236.53
2022-11-05T18:29:06.689Z,101231.72
2022-11-05T18:31:35.383Z,101229.63
2022-11-05T18:34:03.767Z,101233.16
2022-11-05T18:36:33.518Z,101236.22
2022-11-05T18:39:03.680Z,101237.81
2022-11-05T18:41:32.107Z,101230.09
2022-11-05T18:44:01.386Z,101246.50
2022-11-05T18:46:56.592Z,101248.13
2022-11-05T18:49:19.622Z,101246.50
2022-11-05T18:51:47.956Z,101243.28
2022-11-05T18:54:16.176Z,101253.06
2022-11-05T18:56:46.087Z,101249.88
2022-11-05T19:02:05.283Z,101248.72
2022-11-05T19:04:35.228Z,101259.19
2022-11-05T19:07:05.439Z,101254.84
2022-11-05T19:09:35.250Z,101257.88
2022-11-05T19:12:03.898Z,101265.47
2022-11-05T19:14:33.745Z,101264.34
2022-11-05T19:17:02.544Z,101269.00
2022-11-05T19:19:31.145Z,101261.28
2022-11-05T19:21:59.599Z,101270.94
2022-11-05T19:24:27.779Z,101278.63
2022-11-05T19:26:55.923Z,101279.75
2022-11-05T19:29:24.199Z,101277.00
2022-11-05T19:31:52.078Z,101274.28
2022-11-05T19:34:21.270Z,101277.50
2022-11-05T19:36:49.801Z,101284.72
2022-11-05T19:39:18.322Z,101278.47
2022-11-05T19:41:46.866Z,101288.75
2022-11-05T19:44:15.348Z,101281.03
2022-11-05T19:46:44.430Z,101283.78
2022-11-05T19:49:13.801Z,101280.25
2022-11-05T19:51:42.487Z,101282.66
2022-11-05T19:54:11.578Z,101282.97
2022-11-05T19:56:40.226Z,101285.19
2022-11-05T19:59:08.541Z,101287.94
2022-11-05T20:01:37.333Z,101289.88
2022-11-05T20:04:06.806Z,101291.81
2022-11-05T20:06:40.078Z,101287.47
2022-11-05T20:09:21.791Z,101287.78
2022-11-05T20:11:55.028Z,101297.91
2022-11-05T20:14:26.901Z,101293.56
2022-11-05T20:16:55.222Z,101302.53
2022-11-05T20:19:24.375Z,101298.53
2022-11-05T20:21:53.206Z,101306.22
2022-11-05T20:24:25.323Z,101299.66
2022-11-05T20:26:55.435Z,101309.16
2022-11-05T20:29:26.055Z,101300.16
2022-11-05T20:31:58.324Z,101306.22
2022-11-05T20:34:26.571Z,101300.63
2022-11-05T20:36:55.262Z,101295.81
2022-11-05T20:39:24.127Z,101307.03
2022-11-05T20:41:53.323Z,101305.09
2022-11-05T20:44:21.193Z,101308.16
2022-11-05T20:46:49.899Z,101314.09
2022-11-05T20:49:24.052Z,101317.97
2022-11-05T20:51:54.264Z,101312.84
2022-11-05T20:54:23.738Z,101320.53
2022-11-05T20:56:52.904Z,101312.34
2022-11-05T20:59:21.364Z,101307.38
2022-11-05T21:01:52.911Z,101322.31
2022-11-05T21:04:21.592Z,101323.09
2022-11-05T21:06:50.425Z,101321.19
2022-11-05T21:09:20.821Z,101314.59
2022-11-05T21:12:11.824Z,101319.25
2022-11-05T21:14:41.585Z,101315.38
2022-11-05T21:17:12.532Z,101312.34
2022-11-05T21:19:41.243Z,101306.88
2022-11-05T21:22:09.823Z,101305.78
2022-11-05T21:24:38.281Z,101304.31
2022-11-05T21:27:06.587Z,101305.63
2022-11-05T21:29:34.800Z,101301.28
2022-11-05T21:32:04.290Z,101300.00
2022-11-05T21:34:32.891Z,101304.81
2022-11-05T21:37:01.028Z,101302.75
2022-11-05T21:39:29.583Z,101304.50
2022-11-05T21:41:58.681Z,101305.13
2022-11-05T21:44:27.141Z,101310.44
2022-11-05T21:47:00.507Z,101312.69
2022-11-05T21:49:28.997Z,101304.50
2022-11-05T21:52:17.554Z,101311.09
2022-11-05T21:55:06.427Z,101306.72
2022-11-05T21:57:54.801Z,101305.13
2022-11-05T22:00:23.141Z,101309.47
2022-11-05T22:02:52.403Z,101307.03
2022-11-05T22:05:20.654Z,101308.97
2022-11-05T22:07:48.497Z,101307.53
2022-11-05T22:10:17.732Z,101307.69
2022-11-05T22:12:46.374Z,101305.47
2022-11-05T22:15:15.435Z,101306.59
2022-11-05T22:17:46.976Z,101301.78
2022-11-05T22:20:16.165Z,101300.16
2022-11-05T22:22:44.435Z,101300.47
2022-11-05T22:25:14.114Z,101300.00
2022-11-05T22:27:42.480Z,101298.38
2022-11-05T22:30:11.178Z,101297.56
2022-11-05T22:32:39.620Z,101305.94
2022-11-05T22:35:09.390Z,101304.97
2022-11-05T22:37:37.526Z,101313.47
2022-11-05T22:40:06.125Z,101316.53
2022-11-05T22:42:34.804Z,101320.38
2022-11-05T22:45:02.468Z,101330.50
2022-11-05T22:47:30.809Z,101330.81
2022-11-05T22:49:58.919Z,101334.69
2022-11-05T22:52:27.122Z,101331.97
2022-11-05T22:54:56.211Z,101335.50
2022-11-05T22:57:24.399Z,101336.94
2022-11-05T22:59:53.071Z,101342.41
2022-11-05T23:02:21.811Z,101345.94
2022-11-05T23:04:52.558Z,101341.59
2022-11-05T23:07:40.921Z,101340.97
2022-11-05T23:10:30.100Z,101339.38
2022-11-05T23:12:58.370Z,101345.47
2022-11-05T23:15:46.326Z,101350.44
2022-11-05T23:18:34.859Z,101350.13
2022-11-05T23:21:25.782Z,101349.31
2022-11-05T23:24:10.033Z,101351.25
2022-11-05T23:26:59.804Z,101352.06
2022-11-05T23:29:29.201Z,101355.59
2022-11-05T23:32:17.588Z,101361.34
2022-11-05T23:34:45.923Z,101358.63
2022-11-05T23:37:38.071Z,101360.53
2022-11-05T23:40:10.087Z,101360.53
2022-11-05T23:42:59.741Z,101366.81
2022-11-05T23:45:48.007Z,101362.97
2022-11-05T23:48:23.520Z,101365.69
2022-11-05T23:53:31.861Z,101366.03
2022-11-05T23:56:16.472Z,101374.38
2022-11-05T23:58:44.940Z,101361.53
